Time;durP1;ratioP1;P1;durP2;ratioP2;P2;SDS_P1;SDS_P2;PMS_P1;PMS_P2;Temp;Humidity;BMP_temperature;BMP_pressure;BME280_temperature;BME280_humidity;BME280_pressure;Samples;Min_cycle;Max_cycle;Signal;HPM_P1;HPM_P2
2021/12/27 00:02:21;;;;;;;124.20;49.23;;;;;;;-12.15;100.00;98756.26;2171453;81;21005;-87
2021/12/27 00:05:22;;;;;;;117.85;48.45;;;;;;;-12.29;100.00;98754.06;2171222;82;21029;-88
2021/12/27 00:08:23;;;;;;;133.22;55.55;;;;;;;-12.39;100.00;98755.98;2171165;81;21077;-88
2021/12/27 00:11:24;;;;;;;146.07;60.58;;;;;;;-12.42;100.00;98757.33;2171388;81;21049;-86
2021/12/27 00:14:25;;;;;;;132.80;51.18;;;;;;;-12.43;100.00;98764.50;2171161;81;20997;-85
2021/12/27 00:17:26;;;;;;;126.27;51.25;;;;;;;-12.43;100.00;98753.58;2171385;82;21544;-85
2021/12/27 00:20:27;;;;;;;136.70;52.93;;;;;;;-12.47;100.00;98756.59;2171307;81;20978;-85
2021/12/27 00:23:28;;;;;;;138.97;54.33;;;;;;;-12.47;100.00;98742.71;2171468;81;21021;-85
2021/12/27 00:26:29;;;;;;;155.45;65.72;;;;;;;-12.45;100.00;98743.93;2171294;81;20962;-86
2021/12/27 00:29:30;;;;;;;135.57;59.25;;;;;;;-12.37;100.00;98745.41;2171352;81;20998;-87
2021/12/27 00:32:32;;;;;;;151.12;60.12;;;;;;;-12.20;100.00;98745.44;2171164;81;21086;-86
2021/12/27 00:35:34;;;;;;;125.95;49.80;;;;;;;-12.11;100.00;98746.47;2171252;82;21085;-86
2021/12/27 00:38:35;;;;;;;134.97;53.35;;;;;;;-12.03;100.00;98749.63;2171265;81;21477;-86
2021/12/27 00:41:36;;;;;;;154.10;56.90;;;;;;;-12.03;100.00;98748.36;2171247;81;21017;-86
2021/12/27 00:44:37;;;;;;;146.22;61.25;;;;;;;-12.01;100.00;98749.58;2171233;81;21551;-87
2021/12/27 00:47:37;;;;;;;156.70;64.90;;;;;;;-11.96;100.00;98747.78;2171377;81;21076;-85
2021/12/27 00:50:38;;;;;;;170.22;66.97;;;;;;;-11.91;100.00;98749.30;2171194;81;20998;-85
2021/12/27 00:53:39;;;;;;;154.72;63.98;;;;;;;-11.85;100.00;98747.89;2171252;81;21448;-86
2021/12/27 00:56:40;;;;;;;165.32;68.15;;;;;;;-11.83;100.00;98747.84;2171188;81;21139;-87
2021/12/27 00:59:41;;;;;;;158.22;63.42;;;;;;;-11.86;100.00;98746.23;2186112;81;21064;-86
2021/12/27 01:02:41;;;;;;;161.60;65.80;;;;;;;-11.79;100.00;98753.20;2187685;81;21068;-87
2021/12/27 01:05:42;;;;;;;162.95;63.98;;;;;;;-11.74;100.00;98745.05;2187410;81;21576;-86
2021/12/27 01:08:43;;;;;;;161.73;65.03;;;;;;;-11.65;100.00;98751.11;2187701;81;21014;-87
2021/12/27 01:12:10;;;;;;;121.77;52.70;;;;;;;-11.61;100.00;98744.27;2187797;81;21040;-88
2021/12/27 01:15:08;;;;;;;153.80;63.78;;;;;;;-11.64;100.00;98750.23;2185184;81;21062;-87
2021/12/27 01:17:58;;;;;;;155.18;62.58;;;;;;;-11.63;100.00;98741.79;2185820;81;21145;-88
2021/12/27 01:20:58;;;;;;;156.52;64.30;;;;;;;-11.57;100.00;98735.75;2188001;81;21057;-86
2021/12/27 01:23:59;;;;;;;151.63;62.65;;;;;;;-11.47;100.00;98740.50;2187929;81;20962;-87
2021/12/27 01:27:02;;;;;;;153.23;65.03;;;;;;;-11.39;100.00;98736.94;2188056;81;21445;-87
2021/12/27 01:30:03;;;;;;;144.07;58.17;;;;;;;-11.36;100.00;98730.52;2187783;81;21573;-86
2021/12/27 01:33:04;;;;;;;144.97;60.05;;;;;;;-11.37;100.00;98737.72;2187690;81;20953;-87
2021/12/27 01:36:05;;;;;;;118.70;49.45;;;;;;;-11.54;100.00;98740.71;2187806;81;21107;-85
2021/12/27 01:39:05;;;;;;;126.42;50.65;;;;;;;-11.66;100.00;98733.48;2187772;81;20994;-85
2021/12/27 01:42:06;;;;;;;141.20;56.73;;;;;;;-11.77;100.00;98734.59;2187806;81;21102;-85
2021/12/27 01:45:09;;;;;;;131.70;57.48;;;;;;;-11.85;100.00;98728.95;2187665;81;21449;-86
2021/12/27 01:48:10;;;;;;;139.10;56.13;;;;;;;-11.92;100.00;98729.14;2187769;81;21509;-86
2021/12/27 01:51:11;;;;;;;124.00;56.65;;;;;;;-11.99;100.00;98733.52;2188011;81;21052;-86
2021/12/27 01:54:11;;;;;;;131.95;55.83;;;;;;;-12.01;100.00;98731.91;2187707;81;21014;-89
2021/12/27 01:57:12;;;;;;;126.78;51.90;;;;;;;-12.03;100.00;98729.43;2187933;81;21016;-86
2021/12/27 02:00:13;;;;;;;103.78;44.10;;;;;;;-12.05;100.00;98732.44;2171878;81;21490;-90
2021/12/27 02:03:14;;;;;;;112.25;51.90;;;;;;;-12.00;100.00;98734.39;2171437;81;21016;-87
2021/12/27 02:06:15;;;;;;;121.17;50.88;;;;;;;-12.00;100.00;98735.66;2171373;81;21057;-90
2021/12/27 02:09:17;;;;;;;119.28;50.23;;;;;;;-11.90;100.00;98737.06;2171369;81;21286;-90
2021/12/27 02:12:17;;;;;;;117.77;46.05;;;;;;;-11.86;100.00;98739.09;2171444;81;21001;-90
2021/12/27 02:15:18;;;;;;;98.20;43.78;;;;;;;-11.78;100.00;98728.33;2171957;81;21551;-85
2021/12/27 02:18:19;;;;;;;109.45;46.30;;;;;;;-11.70;100.00;98733.14;2172035;81;21014;-88
2021/12/27 02:21:20;;;;;;;109.90;48.60;;;;;;;-11.69;100.00;98731.87;2171937;81;20954;-90
2021/12/27 02:24:20;;;;;;;105.45;45.88;;;;;;;-11.69;100.00;98725.55;2172470;81;20966;-90
2021/12/27 02:27:21;;;;;;;103.42;43.98;;;;;;;-11.65;100.00;98720.80;2172098;81;21003;-90
2021/12/27 02:30:22;;;;;;;102.35;40.48;;;;;;;-11.56;100.00;98723.51;2173159;82;20962;-87
2021/12/27 02:33:23;;;;;;;76.33;35.73;;;;;;;-11.46;100.00;98726.17;2171912;81;20950;-89
2021/12/27 02:36:25;;;;;;;89.05;38.88;;;;;;;-11.34;100.00;98712.34;2171628;81;21022;-90
2021/12/27 02:39:29;;;;;;;74.80;29.23;;;;;;;-11.20;100.00;98713.61;2171385;82;21109;-90
2021/12/27 02:42:29;;;;;;;60.12;25.27;;;;;;;-11.15;100.00;98707.58;2171873;82;21047;-90
2021/12/27 02:45:30;;;;;;;78.60;40.48;;;;;;;-11.08;100.00;98707.36;2171904;81;21560;-88
2021/12/27 02:48:31;;;;;;;82.08;36.73;;;;;;;-11.06;100.00;98711.95;2171658;81;20946;-91
2021/12/27 02:51:32;;;;;;;82.25;38.23;;;;;;;-11.01;100.00;98710.10;2172342;81;21300;-88
2021/12/27 02:54:33;;;;;;;94.85;38.53;;;;;;;-10.96;100.00;98709.98;2171548;81;21018;-89
2021/12/27 02:57:33;;;;;;;85.00;38.00;;;;;;;-10.95;100.00;98711.19;2171743;81;21005;-90
2021/12/27 03:00:34;;;;;;;93.75;40.08;;;;;;;-10.91;100.00;98711.47;2171615;81;21033;-89
2021/12/27 03:03:35;;;;;;;83.90;34.45;;;;;;;-10.94;100.00;98710.75;2171596;81;20998;-90
2021/12/27 03:06:36;;;;;;;81.40;38.50;;;;;;;-10.94;100.00;98706.52;2171485;81;21196;-90
2021/12/27 03:09:37;;;;;;;83.30;36.48;;;;;;;-10.97;100.00;98711.68;2171583;81;21025;-90
2021/12/27 03:12:38;;;;;;;94.92;39.20;;;;;;;-10.98;100.00;98710.44;2171811;81;21045;-90
2021/12/27 03:15:39;;;;;;;66.80;32.40;;;;;;;-10.96;100.00;98712.51;2171484;81;21040;-85
2021/12/27 03:18:39;;;;;;;76.72;32.55;;;;;;;-11.00;100.00;98699.11;2172936;81;20959;-86
2021/12/27 03:21:40;;;;;;;87.00;36.65;;;;;;;-11.06;100.00;98709.84;2172432;81;21065;-88
2021/12/27 03:24:41;;;;;;;90.40;35.15;;;;;;;-11.09;100.00;98695.59;2172605;81;20998;-89
2021/12/27 03:27:42;;;;;;;92.40;38.48;;;;;;;-11.09;100.00;98690.97;2172863;81;21100;-86
2021/12/27 03:30:43;;;;;;;85.40;39.23;;;;;;;-11.13;100.00;98689.42;2172407;81;21081;-86
2021/12/27 03:33:43;;;;;;;96.75;37.17;;;;;;;-11.17;100.00;98688.66;2172390;82;20957;-85
2021/12/27 03:36:44;;;;;;;77.85;33.63;;;;;;;-11.17;100.00;98687.40;2172167;81;21084;-85
2021/12/27 03:39:45;;;;;;;72.03;31.90;;;;;;;-11.22;100.00;98686.73;2172476;82;21026;-85
2021/12/27 03:42:52;;;;;;;79.55;35.28;;;;;;;-11.26;100.00;98676.30;2171836;82;21088;-87
2021/12/27 03:45:53;;;;;;;88.40;36.48;;;;;;;-11.28;100.00;98688.16;2171606;81;20946;-89
2021/12/27 03:48:54;;;;;;;72.85;34.23;;;;;;;-11.26;100.00;98683.88;2171648;81;20985;-90
2021/12/27 03:51:54;;;;;;;75.45;32.33;;;;;;;-11.26;100.00;98682.62;2171691;81;21045;-89
2021/12/27 03:54:55;;;;;;;82.00;35.60;;;;;;;-11.23;100.00;98677.48;2171761;82;21050;-90
2021/12/27 03:58:06;;;;;;;80.87;32.90;;;;;;;-11.16;100.00;98673.05;2172735;81;20998;-91
2021/12/27 04:01:14;;;;;;;74.30;32.45;;;;;;;-11.11;100.00;98675.84;2186825;81;21028;-90
2021/12/27 04:04:04;;;;;;;71.35;31.62;;;;;;;-11.13;100.00;98669.19;2186599;81;21077;-89
2021/12/27 04:07:07;;;;;;;79.42;33.40;;;;;;;-11.19;100.00;98676.08;2188091;81;20992;-90
2021/12/27 04:10:07;;;;;;;76.82;28.87;;;;;;;-11.23;100.00;98677.48;2188397;81;21022;-91
2021/12/27 04:13:08;;;;;;;77.78;31.73;;;;;;;-11.26;100.00;98678.39;2189499;81;21005;-89
2021/12/27 04:16:09;;;;;;;77.80;35.05;;;;;;;-11.28;100.00;98680.58;2189202;81;21049;-85
2021/12/27 04:19:10;;;;;;;76.80;31.40;;;;;;;-11.35;100.00;98677.39;2189216;81;21590;-90
2021/12/27 04:22:11;;;;;;;85.12;35.55;;;;;;;-11.37;100.00;98680.41;2189910;81;21001;-85
2021/12/27 04:25:12;;;;;;;75.17;31.42;;;;;;;-11.39;100.00;98686.39;2190060;81;20973;-85
2021/12/27 04:28:13;;;;;;;83.05;36.42;;;;;;;-11.44;100.00;98685.69;2190276;81;20962;-85
2021/12/27 04:31:14;;;;;;;81.02;35.78;;;;;;;-11.43;100.00;98682.28;2190542;81;21025;-88
2021/12/27 04:34:15;;;;;;;97.47;39.73;;;;;;;-11.52;100.00;98673.27;2189908;81;21536;-89
2021/12/27 04:37:16;;;;;;;90.70;35.92;;;;;;;-11.58;100.00;98683.56;2189902;81;20965;-85
2021/12/27 04:40:17;;;;;;;88.82;36.68;;;;;;;-11.61;100.00;98682.36;2189982;81;21545;-86
2021/12/27 04:43:17;;;;;;;88.30;40.73;;;;;;;-11.62;100.00;98684.06;2189897;81;21505;-87
2021/12/27 04:46:18;;;;;;;89.35;35.65;;;;;;;-11.60;100.00;98684.05;2189827;81;21034;-87
2021/12/27 04:49:19;;;;;;;80.85;35.68;;;;;;;-11.56;100.00;98685.61;2189729;81;20954;-88
2021/12/27 04:52:20;;;;;;;76.95;33.92;;;;;;;-11.54;100.00;98683.86;2188940;81;21034;-91
2021/12/27 04:55:20;;;;;;;84.30;35.80;;;;;;;-11.49;100.00;98699.29;2188980;81;21016;-90
2021/12/27 04:58:22;;;;;;;82.72;37.05;;;;;;;-11.42;100.00;98702.92;2187741;81;20988;-90
2021/12/27 05:01:23;;;;;;;74.90;32.33;;;;;;;-11.35;100.00;98700.14;2171586;82;20982;-89
2021/12/27 05:04:24;;;;;;;69.00;26.35;;;;;;;-11.28;100.00;98704.16;2171401;81;20998;-88
2021/12/27 05:07:25;;;;;;;67.75;29.67;;;;;;;-11.24;100.00;98696.06;2171451;81;21057;-88
2021/12/27 05:10:25;;;;;;;60.15;28.45;;;;;;;-11.18;100.00;98692.07;2171254;81;21048;-89
2021/12/27 05:13:31;;;;;;;56.05;25.77;;;;;;;-11.10;100.00;98691.84;2171523;82;21021;-88
2021/12/27 05:16:29;;;;;;;55.40;26.52;;;;;;;-11.07;100.00;98696.36;2171937;81;21021;-89
2021/12/27 05:19:30;;;;;;;72.37;30.77;;;;;;;-11.01;100.00;98689.87;2171573;81;20973;-90
2021/12/27 05:22:31;;;;;;;59.75;27.17;;;;;;;-10.95;100.00;98694.75;2171716;81;20982;-89
2021/12/27 05:25:32;;;;;;;65.32;29.63;;;;;;;-10.90;100.00;98690.36;2171496;82;20982;-90
2021/12/27 05:28:32;;;;;;;65.15;28.15;;;;;;;-10.89;100.00;98682.33;2171508;81;20997;-89
2021/12/27 05:31:33;;;;;;;45.92;22.10;;;;;;;-10.83;100.00;98678.36;2171544;81;21026;-91
2021/12/27 05:34:34;;;;;;;56.28;22.62;;;;;;;-10.73;100.00;98678.89;2172155;81;21548;-91
2021/12/27 05:37:35;;;;;;;56.40;24.98;;;;;;;-10.64;100.00;98689.55;2171449;81;20986;-90
2021/12/27 05:40:35;;;;;;;48.70;23.22;;;;;;;-10.57;100.00;98686.83;2171491;81;21675;-90
2021/12/27 05:43:36;;;;;;;60.95;27.50;;;;;;;-10.48;100.00;98687.80;2171419;81;21141;-93
2021/12/27 05:46:37;;;;;;;44.90;19.73;;;;;;;-10.42;100.00;98673.25;2171481;81;20997;-91
2021/12/27 05:49:38;;;;;;;56.02;23.87;;;;;;;-10.35;100.00;98684.80;2171116;81;21057;-87
2021/12/27 05:52:39;;;;;;;42.98;18.10;;;;;;;-10.29;100.00;98680.42;2171692;81;21050;-90
2021/12/27 05:55:39;;;;;;;63.55;29.57;;;;;;;-10.25;100.00;98678.16;2170868;81;21473;-89
2021/12/27 05:58:40;;;;;;;62.85;27.80;;;;;;;-10.22;100.00;98679.34;2171164;82;21061;-89
2021/12/27 06:04:43;;;;;;;52.80;24.23;;;;;;;-10.18;100.00;98689.72;2073712;86;21126;-91
2021/12/27 06:07:44;;;;;;;53.40;23.18;;;;;;;-10.16;100.00;98684.98;2073713;86;21087;-85
2021/12/27 06:10:45;;;;;;;42.13;17.07;;;;;;;-10.15;100.00;98682.86;2073867;86;21055;-88
2021/12/27 06:13:46;;;;;;;54.93;23.77;;;;;;;-10.10;100.00;98682.69;2073857;86;21165;-89
2021/12/27 06:16:47;;;;;;;67.15;29.50;;;;;;;-10.09;100.00;98681.81;2073914;86;21534;-86
2021/12/27 06:19:48;;;;;;;62.13;27.22;;;;;;;-10.05;100.00;98681.67;2073611;86;21066;-87
2021/12/27 06:22:49;;;;;;;63.70;27.32;;;;;;;-10.05;100.00;98671.53;2073429;86;21646;-88
2021/12/27 06:25:50;;;;;;;65.47;31.12;;;;;;;-10.02;100.00;98669.33;2073582;86;21019;-89
2021/12/27 06:28:50;;;;;;;58.78;24.12;;;;;;;-9.97;100.00;98665.35;2073701;86;21629;-86
2021/12/27 06:31:51;;;;;;;62.00;25.43;;;;;;;-9.93;100.00;98671.55;2073679;86;21065;-86
2021/12/27 06:34:52;;;;;;;50.65;24.05;;;;;;;-9.96;100.00;98669.13;2073665;86;21042;-87
2021/12/27 06:37:53;;;;;;;59.98;23.65;;;;;;;-9.94;100.00;98667.36;2073914;86;21031;-87
2021/12/27 06:40:54;;;;;;;57.13;26.52;;;;;;;-9.86;100.00;98677.23;2073637;86;21070;-86
2021/12/27 06:43:54;;;;;;;49.53;22.50;;;;;;;-9.80;100.00;98684.59;2073596;86;21095;-87
2021/12/27 06:46:59;;;;;;;66.40;30.65;;;;;;;-9.73;100.00;98683.50;2073717;86;20999;-86
2021/12/27 06:49:58;;;;;;;61.00;24.30;;;;;;;-9.72;100.00;98681.35;2073401;86;21126;-87
2021/12/27 06:52:59;;;;;;;58.35;24.85;;;;;;;-9.65;100.00;98676.91;2073821;86;21074;-87
2021/12/27 06:56:00;;;;;;;51.83;21.73;;;;;;;-9.60;100.00;98680.08;2073838;86;21074;-88
2021/12/27 06:59:02;;;;;;;58.50;26.60;;;;;;;-9.59;100.00;98672.89;2072708;86;21051;-87
2021/12/27 07:02:03;;;;;;;54.05;24.02;;;;;;;-9.62;100.00;98672.98;2123871;83;21060;-87
2021/12/27 07:05:04;;;;;;;51.65;22.58;;;;;;;-9.58;100.00;98664.40;2140491;83;21376;-88
2021/12/27 07:08:05;;;;;;;51.70;22.07;;;;;;;-9.50;100.00;98670.02;2140403;83;21071;-87
2021/12/27 07:11:06;;;;;;;49.00;23.90;;;;;;;-9.44;100.00;98655.83;2140569;83;21088;-87
2021/12/27 07:14:07;;;;;;;47.13;21.65;;;;;;;-9.40;100.00;98660.36;2140535;83;21080;-87
2021/12/27 07:17:08;;;;;;;51.80;20.90;;;;;;;-9.30;100.00;98666.74;2140812;83;20972;-87
2021/12/27 07:20:09;;;;;;;59.85;22.95;;;;;;;-9.24;100.00;98676.19;2140710;83;21529;-86
2021/12/27 07:23:10;;;;;;;49.23;23.30;;;;;;;-9.22;100.00;98666.84;2140717;83;20988;-87
2021/12/27 07:26:10;;;;;;;47.00;20.40;;;;;;;-9.18;100.00;98662.02;2140837;83;21003;-86
2021/12/27 07:29:11;;;;;;;46.20;20.17;;;;;;;-9.09;100.00;98670.99;2140735;83;20925;-87
2021/12/27 07:32:12;;;;;;;36.00;18.50;;;;;;;-9.01;100.00;98666.90;2140670;83;21063;-86
2021/12/27 07:35:13;;;;;;;49.77;23.02;;;;;;;-8.91;100.00;98666.92;2141000;83;21150;-86
2021/12/27 07:38:14;;;;;;;49.90;24.05;;;;;;;-8.81;100.00;98671.19;2140631;83;21216;-88
2021/12/27 07:41:14;;;;;;;53.30;24.63;;;;;;;-8.75;100.00;98668.42;2141227;83;21065;-85
2021/12/27 07:44:15;;;;;;;50.48;23.02;;;;;;;-8.65;100.00;98675.61;2142238;83;21049;-87
2021/12/27 07:47:16;;;;;;;58.65;28.20;;;;;;;-8.64;100.00;98675.16;2141261;83;21076;-87
2021/12/27 07:50:17;;;;;;;60.98;26.25;;;;;;;-8.60;100.00;98673.70;2140537;83;21048;-87
2021/12/27 07:53:18;;;;;;;59.93;27.32;;;;;;;-8.56;100.00;98657.09;2140417;83;21289;-86
2021/12/27 07:56:18;;;;;;;51.00;22.65;;;;;;;-8.64;100.00;98657.39;2140781;83;21511;-86
2021/12/27 07:59:19;;;;;;;45.00;19.07;;;;;;;-8.69;100.00;98652.48;2147710;81;20990;-85
2021/12/27 08:02:20;;;;;;;51.42;24.90;;;;;;;-8.68;100.00;98654.16;2187833;81;20996;-87
2021/12/27 08:05:21;;;;;;;51.05;23.87;;;;;;;-8.66;100.00;98643.50;2187749;81;20922;-86
2021/12/27 08:08:22;;;;;;;41.55;21.07;;;;;;;-8.66;100.00;98649.84;2187719;81;20992;-88
2021/12/27 08:11:24;;;;;;;43.23;22.73;;;;;;;-8.67;100.00;98650.73;2187561;81;21517;-84
2021/12/27 08:14:25;;;;;;;55.73;23.60;;;;;;;-8.69;100.00;98630.08;2187720;81;21525;-85
2021/12/27 08:17:26;;;;;;;39.63;20.35;;;;;;;-8.66;100.00;98633.34;2187797;81;21061;-80
2021/12/27 08:20:27;;;;;;;58.30;22.40;;;;;;;-8.66;100.00;98642.67;2187725;81;20965;-86
2021/12/27 08:23:28;;;;;;;47.62;23.47;;;;;;;-8.67;100.00;98635.95;2187867;81;21058;-89
2021/12/27 08:26:28;;;;;;;55.88;26.45;;;;;;;-8.65;100.00;98646.86;2187791;81;21057;-87
2021/12/27 08:29:30;;;;;;;50.03;23.35;;;;;;;-8.62;100.00;98647.55;2187490;81;21001;-89
2021/12/27 08:32:31;;;;;;;48.80;22.60;;;;;;;-8.55;100.00;98633.34;2187574;81;21000;-84
2021/12/27 08:35:32;;;;;;;51.98;22.22;;;;;;;-8.49;100.00;98630.56;2187830;81;21628;-85
2021/12/27 08:38:33;;;;;;;39.67;22.35;;;;;;;-8.41;100.00;98629.36;2187321;81;21061;-85
2021/12/27 08:41:34;;;;;;;55.63;27.30;;;;;;;-8.38;100.00;98633.48;2187616;81;21552;-84
2021/12/27 08:44:34;;;;;;;46.35;21.70;;;;;;;-8.31;100.00;98642.47;2187665;81;21532;-84
2021/12/27 08:47:35;;;;;;;54.33;23.90;;;;;;;-8.20;100.00;98634.39;2187683;81;21514;-84
2021/12/27 08:50:41;;;;;;;57.33;28.07;;;;;;;-8.16;100.00;98634.63;2187775;81;20962;-83
2021/12/27 08:53:40;;;;;;;58.28;27.55;;;;;;;-8.07;100.00;98632.52;2186564;81;21492;-84
2021/12/27 08:56:41;;;;;;;58.40;27.52;;;;;;;-7.96;100.00;98631.23;2187820;81;21016;-82
2021/12/27 08:59:41;;;;;;;55.15;26.00;;;;;;;-7.87;100.00;98635.91;2187465;81;21040;-82
2021/12/27 09:02:42;;;;;;;57.30;26.82;;;;;;;-7.83;100.00;98630.64;2187728;81;21044;-83
2021/12/27 09:05:43;;;;;;;51.00;25.10;;;;;;;-7.81;100.00;98627.58;2187488;81;21547;-83
2021/12/27 09:08:44;;;;;;;53.10;25.80;;;;;;;-7.81;100.00;98626.31;2187629;81;20994;-83
2021/12/27 09:11:45;;;;;;;57.67;27.45;;;;;;;-7.77;100.00;98615.58;2187479;81;20981;-82
2021/12/27 09:14:46;;;;;;;51.68;23.85;;;;;;;-7.66;100.00;98622.73;2187632;81;21127;-83
2021/12/27 09:17:47;;;;;;;52.03;23.98;;;;;;;-7.72;100.00;98614.91;2187620;81;21012;-83
2021/12/27 09:20:47;;;;;;;49.60;23.40;;;;;;;-7.67;100.00;98614.27;2187532;81;21018;-83
2021/12/27 09:23:48;;;;;;;58.28;25.60;;;;;;;-7.52;100.00;98604.66;2187608;81;20962;-83
2021/12/27 09:26:49;;;;;;;43.78;23.30;;;;;;;-7.33;100.00;98601.28;2187803;81;20997;-82
2021/12/27 09:29:51;;;;;;;53.30;26.55;;;;;;;-7.26;100.00;98600.11;2187751;81;21016;-83
2021/12/27 09:32:53;;;;;;;51.42;25.10;;;;;;;-7.22;100.00;98592.72;2187438;81;21077;-83
2021/12/27 09:35:57;;;;;;;52.58;26.87;;;;;;;-7.13;100.00;98587.20;2187438;81;21085;-83
2021/12/27 09:38:58;;;;;;;54.33;25.95;;;;;;;-7.04;100.00;98584.22;2187643;81;21534;-84
2021/12/27 09:41:59;;;;;;;54.27;25.48;;;;;;;-6.98;100.00;98584.36;2187547;81;20922;-82
2021/12/27 09:45:00;;;;;;;55.85;28.98;;;;;;;-6.89;100.00;98585.19;2187674;81;21004;-82
2021/12/27 09:48:01;;;;;;;54.83;25.55;;;;;;;-6.88;100.00;98580.47;2187693;81;20978;-82
2021/12/27 09:51:02;;;;;;;54.70;25.45;;;;;;;-6.95;100.00;98582.51;2187543;81;21036;-83
2021/12/27 09:54:03;;;;;;;50.67;26.15;;;;;;;-6.96;100.00;98562.19;2187498;81;21025;-85
2021/12/27 09:57:04;;;;;;;40.65;21.70;;;;;;;-6.94;100.00;98562.97;2187351;81;20989;-87
2021/12/27 10:00:05;;;;;;;47.08;23.83;;;;;;;-6.90;100.00;98556.81;2183618;81;21026;-84
2021/12/27 10:03:08;;;;;;;46.58;22.50;;;;;;;-6.85;100.00;98557.88;2170978;81;21651;-85
2021/12/27 10:06:08;;;;;;;45.03;24.25;;;;;;;-6.75;100.00;98547.61;2170764;81;21532;-86
2021/12/27 10:09:09;;;;;;;47.98;21.25;;;;;;;-6.67;100.00;98541.24;2171050;81;21061;-87
2021/12/27 10:12:10;;;;;;;44.10;22.40;;;;;;;-6.67;100.00;98538.70;2171319;81;21085;-84
2021/12/27 10:15:10;;;;;;;40.23;21.07;;;;;;;-6.62;100.00;98541.81;2171163;81;21041;-84
2021/12/27 10:18:11;;;;;;;39.50;18.57;;;;;;;-6.49;100.00;98530.58;2171174;81;20970;-84
2021/12/27 10:21:12;;;;;;;43.80;21.20;;;;;;;-6.63;100.00;98545.27;2170891;82;21576;-88
2021/12/27 10:24:18;;;;;;;43.08;21.95;;;;;;;-6.60;100.00;98540.46;2171008;82;20974;-87
2021/12/27 10:27:16;;;;;;;38.33;20.52;;;;;;;-6.61;100.00;98536.27;2169993;81;21041;-84
2021/12/27 10:30:17;;;;;;;38.73;21.57;;;;;;;-6.68;100.00;98535.75;2171175;82;21037;-83
2021/12/27 10:33:19;;;;;;;41.02;19.82;;;;;;;-6.66;100.00;98539.52;2171207;81;21006;-81
2021/12/27 10:36:20;;;;;;;41.88;22.52;;;;;;;-6.70;100.00;98545.64;2171513;82;21089;-80
2021/12/27 10:39:21;;;;;;;43.28;20.50;;;;;;;-6.80;100.00;98550.38;2171040;81;20947;-81
2021/12/27 10:42:22;;;;;;;39.13;21.30;;;;;;;-6.87;100.00;98546.02;2171026;82;21022;-82
2021/12/27 10:45:23;;;;;;;49.83;22.13;;;;;;;-6.95;100.00;98549.83;2171072;82;21001;-83
2021/12/27 10:48:23;;;;;;;50.73;24.40;;;;;;;-6.94;100.00;98545.14;2171277;82;21050;-82
2021/12/27 10:51:24;;;;;;;33.18;17.87;;;;;;;-7.08;100.00;98538.16;2171202;82;21044;-82
2021/12/27 10:54:25;;;;;;;41.98;19.73;;;;;;;-7.06;100.00;98531.72;2171291;81;21030;-82
2021/12/27 10:57:26;;;;;;;38.92;19.07;;;;;;;-7.09;100.00;98535.24;2171137;82;21056;-81
2021/12/27 11:00:27;;;;;;;42.48;19.15;;;;;;;-7.04;100.00;98536.28;2175444;81;21078;-82
2021/12/27 11:03:28;;;;;;;38.48;19.98;;;;;;;-7.07;100.00;98530.90;2187878;81;21042;-81
2021/12/27 11:06:29;;;;;;;45.50;22.67;;;;;;;-7.00;100.00;98536.52;2187879;81;21493;-81
2021/12/27 11:09:30;;;;;;;42.88;21.57;;;;;;;-6.97;100.00;98530.82;2187764;81;20961;-82
2021/12/27 11:12:31;;;;;;;39.40;21.37;;;;;;;-6.93;100.00;98514.97;2187661;81;20997;-81
2021/12/27 11:15:32;;;;;;;54.35;26.60;;;;;;;-6.97;100.00;98502.82;2187690;81;21032;-82
2021/12/27 11:18:33;;;;;;;42.83;23.30;;;;;;;-6.95;100.00;98499.77;2187914;81;21492;-81
2021/12/27 11:21:34;;;;;;;38.00;22.62;;;;;;;-6.90;100.00;98497.80;2187713;81;21072;-81
2021/12/27 11:24:35;;;;;;;47.48;24.02;;;;;;;-6.89;100.00;98492.27;2187823;81;21021;-82
2021/12/27 11:27:36;;;;;;;41.23;19.73;;;;;;;-6.86;100.00;98480.64;2187760;81;21532;-81
2021/12/27 11:30:37;;;;;;;48.78;25.23;;;;;;;-6.78;100.00;98485.36;2187826;81;20970;-82
2021/12/27 11:33:38;;;;;;;45.08;21.82;;;;;;;-6.69;100.00;98472.98;2187883;81;21594;-83
2021/12/27 11:36:39;;;;;;;39.03;21.12;;;;;;;-6.55;100.00;98471.02;2187772;81;21032;-82
2021/12/27 11:39:40;;;;;;;44.70;21.85;;;;;;;-6.45;100.00;98470.91;2187806;81;20997;-83
2021/12/27 11:42:41;;;;;;;48.25;22.90;;;;;;;-6.31;100.00;98470.17;2188885;81;21041;-85
2021/12/27 11:45:42;;;;;;;44.58;22.73;;;;;;;-6.11;100.00;98469.16;2188141;81;21068;-84
2021/12/27 11:48:43;;;;;;;47.33;24.77;;;;;;;-5.88;100.00;98464.88;2188092;81;20970;-82
2021/12/27 11:51:46;;;;;;;46.23;23.83;;;;;;;-5.69;100.00;98451.12;2187841;81;21008;-83
2021/12/27 11:54:47;;;;;;;45.38;22.67;;;;;;;-5.59;100.00;98456.08;2187808;81;21036;-82
2021/12/27 11:57:48;;;;;;;38.10;20.65;;;;;;;-5.57;100.00;98448.73;2188113;81;20927;-84
2021/12/27 12:00:49;;;;;;;45.65;21.85;;;;;;;-5.54;100.00;98447.27;2187544;81;21025;-79
2021/12/27 12:03:50;;;;;;;41.73;21.23;;;;;;;-5.58;100.00;98444.50;2187670;81;20989;-80
2021/12/27 12:06:51;;;;;;;30.45;16.77;;;;;;;-5.58;100.00;98439.40;2187792;81;21489;-80
2021/12/27 12:09:52;;;;;;;34.27;18.57;;;;;;;-5.57;100.00;98432.59;2187845;81;20958;-81
2021/12/27 12:12:52;;;;;;;33.63;17.10;;;;;;;-5.69;100.00;98423.87;2187702;81;21002;-80
2021/12/27 12:15:53;;;;;;;35.58;16.35;;;;;;;-5.77;100.00;98420.47;2188228;81;20980;-83
2021/12/27 12:18:54;;;;;;;39.15;18.23;;;;;;;-5.76;100.00;98418.73;2187904;81;21020;-80
2021/12/27 12:21:55;;;;;;;42.33;21.42;;;;;;;-5.85;100.00;98409.05;2187619;81;21501;-86
2021/12/27 12:24:56;;;;;;;43.05;20.27;;;;;;;-5.86;100.00;98404.86;2187712;81;21032;-82
2021/12/27 12:27:57;;;;;;;33.40;17.82;;;;;;;-5.87;100.00;98409.13;2187450;81;21017;-83
2021/12/27 12:30:58;;;;;;;38.00;18.55;;;;;;;-5.82;100.00;98405.89;2187862;81;21017;-84
2021/12/27 12:33:59;;;;;;;27.70;15.38;;;;;;;-5.82;100.00;98410.99;2187930;81;20957;-89
2021/12/27 12:37:03;;;;;;;27.77;14.38;;;;;;;-5.83;100.00;98413.18;2187558;81;21040;-85
2021/12/27 12:40:03;;;;;;;38.70;18.65;;;;;;;-5.82;100.00;98424.20;2187761;81;21045;-83
2021/12/27 12:43:04;;;;;;;31.40;17.80;;;;;;;-5.73;100.00;98432.62;2187747;81;21001;-83
2021/12/27 12:46:05;;;;;;;33.02;17.05;;;;;;;-5.73;100.00;98418.14;2187746;81;20930;-83
2021/12/27 12:49:06;;;;;;;29.40;15.68;;;;;;;-5.72;100.00;98407.02;2187802;81;21644;-84
2021/12/27 12:52:07;;;;;;;33.18;16.87;;;;;;;-5.59;100.00;98402.05;2187590;81;20992;-83
2021/12/27 12:55:08;;;;;;;37.42;18.73;;;;;;;-5.50;100.00;98401.98;2187756;81;21116;-87
2021/12/27 12:58:09;;;;;;;36.45;19.15;;;;;;;-5.42;100.00;98413.03;2187867;81;20949;-82
2021/12/27 13:01:09;;;;;;;37.67;18.42;;;;;;;-5.36;100.00;98402.48;2182542;81;21058;-85
2021/12/27 13:04:10;;;;;;;26.62;15.75;;;;;;;-5.29;100.00;98401.23;2171190;82;21002;-82
2021/12/27 13:07:11;;;;;;;32.85;16.60;;;;;;;-5.22;100.00;98406.33;2171058;82;20947;-81
2021/12/27 13:10:12;;;;;;;31.33;17.73;;;;;;;-5.17;100.00;98403.89;2171543;81;21036;-82
2021/12/27 13:13:13;;;;;;;34.45;18.17;;;;;;;-5.12;100.00;98420.23;2171103;82;21513;-82
2021/12/27 13:16:14;;;;;;;31.02;16.85;;;;;;;-5.07;100.00;98423.33;2171112;82;21046;-81
2021/12/27 13:19:15;;;;;;;30.55;16.48;;;;;;;-5.04;100.00;98420.58;2171031;82;21001;-80
2021/12/27 13:22:16;;;;;;;32.30;16.02;;;;;;;-5.02;100.00;98421.80;2171253;82;21559;-81
2021/12/27 13:25:17;;;;;;;31.20;14.28;;;;;;;-5.09;100.00;98411.56;2171143;82;20981;-80
2021/12/27 13:28:19;;;;;;;33.80;16.17;;;;;;;-5.10;100.00;98415.85;2171051;81;21045;-82
2021/12/27 13:31:20;;;;;;;27.80;14.90;;;;;;;-5.16;100.00;98406.80;2171259;81;21077;-82
2021/12/27 13:34:20;;;;;;;29.18;15.15;;;;;;;-5.25;100.00;98404.78;2171257;82;21060;-82
2021/12/27 13:37:22;;;;;;;31.73;18.30;;;;;;;-5.41;100.00;98400.18;2170860;81;21117;-81
2021/12/27 13:40:22;;;;;;;31.20;17.05;;;;;;;-5.40;100.00;98401.00;2171139;82;21013;-83